Cumberland House, Canada
Current Conditions -  °F | °C
As of 12:00 AM on Wednesday 22 Oct 2014 (Local Time) from CYQD Reporting Station
Clear Clear  
Wind Chill: 39°   Ceiling: Unl
Heat Index: 45°   Visibility: 15mi
Dew Point: 41°   Wind: 10mph
Humidity: 87%   Direction: 150°SSE
Pressure: 29.57"   Gusts: NA
Location:  53.95°N, 102.27°W
Report Text: CYQD 220600Z 15009KT 15SM SKC 07/05 A2957 RMK SLP021
Loading
Personal Weather Stations






























Interactive Weather Map
Tropical Storm Tracking
New forecast layout! Learn more

10-Day Weather Forecast

Advertisements
Track Severe Weather on mobile